Time;durP1;ratioP1;P1;durP2;ratioP2;P2;SDS_P1;SDS_P2;PMS_P1;PMS_P2;Temp;Humidity;BMP_temperature;BMP_pressure;BME280_temperature;BME280_humidity;BME280_pressure;Samples;Min_cycle;Max_cycle;Signal;HPM_P1;HPM_P2
2022/02/22 09:41:36;;;;;;;22.63;5.88;;;4.90;99.90;;;;;;5090919;27;21143;-70
2022/02/22 09:44:02;;;;;;;25.02;6.18;;;4.90;99.90;;;;;;5090953;28;20555;-70
2022/02/22 09:46:30;;;;;;;15.35;6.40;;;5.00;99.90;;;;;;5090857;28;20176;-70
2022/02/22 09:48:56;;;;;;;20.42;5.32;;;5.10;99.90;;;;;;5090863;28;20178;-70
2022/02/22 09:51:21;;;;;;;13.90;4.65;;;5.10;99.90;;;;;;5089465;28;20171;-71
2022/02/22 09:53:47;;;;;;;17.90;5.20;;;5.20;99.90;;;;;;5090668;28;20214;-71
2022/02/22 09:56:13;;;;;;;31.20;5.72;;;5.30;99.90;;;;;;5090646;28;20167;-70
2022/02/22 09:58:38;;;;;;;17.13;5.78;;;5.40;99.90;;;;;;5090624;28;20178;-70
2022/02/22 10:01:04;;;;;;;21.83;5.90;;;5.40;99.90;;;;;;5090499;28;20260;-70
2022/02/22 10:03:30;;;;;;;17.77;5.63;;;5.50;99.90;;;;;;5090605;28;20160;-71
2022/02/22 10:06:01;;;;;;;15.57;6.70;;;5.50;99.90;;;;;;5090539;28;20563;-70
2022/02/22 10:08:33;;;;;;;12.23;5.38;;;5.60;99.90;;;;;;5090442;28;20621;-71
2022/02/22 10:11:04;;;;;;;12.80;5.00;;;5.60;99.90;;;;;;5090401;28;20167;-70
2022/02/22 10:13:31;;;;;;;26.58;5.78;;;5.70;99.90;;;;;;5090394;28;20168;-71
2022/02/22 10:15:58;;;;;;;27.20;7.20;;;5.70;99.90;;;;;;5090294;28;20195;-71
2022/02/22 10:18:25;;;;;;;17.35;5.43;;;5.70;99.90;;;;;;5090289;28;20175;-71
2022/02/22 10:20:51;;;;;;;14.15;6.18;;;5.80;99.90;;;;;;5090033;28;20200;-70
2022/02/22 10:23:31;;;;;;;16.55;5.55;;;5.90;99.90;;;;;;5090102;28;20188;-71
2022/02/22 10:25:58;;;;;;;11.27;5.70;;;6.00;99.90;;;;;;5090183;28;20170;-70
2022/02/22 10:28:24;;;;;;;17.73;6.78;;;6.00;99.90;;;;;;5090121;28;20572;-71
2022/02/22 10:30:53;;;;;;;17.10;6.78;;;6.10;99.90;;;;;;5090055;28;20179;-71
2022/02/22 10:33:27;;;;;;;20.23;5.70;;;6.20;99.90;;;;;;5089927;28;20164;-70
2022/02/22 10:35:58;;;;;;;15.25;6.55;;;6.30;99.90;;;;;;5089920;28;20168;-71
2022/02/22 10:38:26;;;;;;;14.20;5.43;;;6.30;99.90;;;;;;5088699;28;20288;-71
2022/02/22 10:41:03;;;;;;;16.77;5.75;;;6.40;99.90;;;;;;5089663;28;20241;-70
2022/02/22 10:43:37;;;;;;;13.50;5.93;;;6.50;99.90;;;;;;5089825;28;20171;-71
2022/02/22 10:46:08;;;;;;;19.73;5.70;;;6.50;99.90;;;;;;5089694;28;20621;-71
2022/02/22 10:48:38;;;;;;;20.50;6.20;;;6.50;99.90;;;;;;5089688;28;20172;-71
2022/02/22 10:51:17;;;;;;;15.95;5.53;;;6.60;99.90;;;;;;5086719;28;20169;-70
2022/02/22 10:53:48;;;;;;;20.52;7.10;;;6.60;99.90;;;;;;5076170;28;20198;-70
2022/02/22 10:56:16;;;;;;;14.27;5.38;;;6.60;99.90;;;;;;5075932;28;20165;-71
2022/02/22 10:58:44;;;;;;;14.00;6.40;;;6.60;99.90;;;;;;5076037;28;20169;-71
2022/02/22 11:01:15;;;;;;;19.27;4.97;;;6.70;99.90;;;;;;5074642;28;20535;-71
2022/02/22 11:03:44;;;;;;;16.75;4.72;;;6.70;99.90;;;;;;5075806;28;20176;-71
2022/02/22 11:06:13;;;;;;;13.63;4.30;;;7.70;99.90;;;;;;5075844;28;20179;-71
2022/02/22 11:08:50;;;;;;;14.43;4.93;;;6.70;99.90;;;;;;5075802;28;20164;-70
2022/02/22 11:11:25;;;;;;;8.10;4.63;;;6.60;99.90;;;;;;5075802;28;20183;-71
2022/02/22 11:14:00;;;;;;;9.25;5.07;;;6.70;99.90;;;;;;5075765;28;20168;-70
2022/02/22 11:16:37;;;;;;;20.60;4.53;;;6.70;99.90;;;;;;5075657;28;20691;-71
2022/02/22 11:19:21;;;;;;;13.85;4.43;;;6.60;99.90;;;;;;5075705;28;20271;-71
2022/02/22 11:22:08;;;;;;;18.38;6.15;;;6.70;99.90;;;;;;5075544;28;20199;-71
2022/02/22 11:24:43;;;;;;;14.63;3.83;;;6.80;99.90;;;;;;5075583;28;20165;-71
2022/02/22 11:27:09;;;;;;;14.75;5.25;;;6.80;99.90;;;;;;5075474;28;20164;-71
2022/02/22 11:29:35;;;;;;;12.10;4.32;;;6.80;99.90;;;;;;5075470;28;20197;-71
2022/02/22 11:32:13;;;;;;;17.70;5.07;;;6.80;99.90;;;;;;5075354;28;20171;-71
2022/02/22 11:34:41;;;;;;;12.50;4.15;;;6.80;99.90;;;;;;5075424;28;20164;-71
2022/02/22 11:37:13;;;;;;;9.13;4.93;;;6.80;99.90;;;;;;5075415;28;20396;-71
2022/02/22 11:39:45;;;;;;;20.90;4.90;;;6.80;99.90;;;;;;5075031;28;20224;-71
2022/02/22 11:42:23;;;;;;;14.68;4.32;;;6.80;99.90;;;;;;5075149;28;20618;-71
2022/02/22 11:45:07;;;;;;;12.98;4.38;;;6.80;99.90;;;;;;5075148;28;20204;-71
2022/02/22 11:47:35;;;;;;;11.73;4.57;;;6.80;99.90;;;;;;5075130;28;20260;-71
2022/02/22 11:50:18;;;;;;;11.00;4.40;;;6.80;99.90;;;;;;5075022;28;20171;-70
2022/02/22 11:52:46;;;;;;;16.13;4.00;;;6.80;99.90;;;;;;5073681;28;20173;-70
2022/02/22 11:55:16;;;;;;;10.45;4.43;;;6.80;99.90;;;;;;5074956;28;20553;-71
2022/02/22 11:57:53;;;;;;;13.02;4.55;;;6.70;99.90;;;;;;5074893;28;20176;-71
2022/02/22 12:00:34;;;;;;;14.10;4.03;;;6.70;99.90;;;;;;5074730;28;20196;-71
2022/02/22 12:03:07;;;;;;;17.55;5.22;;;6.70;99.90;;;;;;5073820;28;20691;-71
2022/02/22 12:05:38;;;;;;;11.00;4.10;;;6.60;99.90;;;;;;5074681;28;20183;-71
2022/02/22 12:08:10;;;;;;;10.35;4.07;;;6.60;99.90;;;;;;5074698;28;20163;-71
2022/02/22 12:10:57;;;;;;;16.23;4.53;;;6.60;99.90;;;;;;5074567;28;20164;-71
2022/02/22 12:13:47;;;;;;;14.93;3.97;;;6.70;99.90;;;;;;5074562;28;20175;-71
2022/02/22 12:16:20;;;;;;;14.02;3.92;;;6.70;99.90;;;;;;5074559;28;20175;-71
2022/02/22 12:18:51;;;;;;;20.90;4.30;;;6.70;99.90;;;;;;5074421;28;20260;-71
2022/02/22 12:21:25;;;;;;;17.45;4.75;;;6.70;99.90;;;;;;5074251;28;20763;-71
2022/02/22 12:23:51;;;;;;;13.35;4.47;;;6.70;99.90;;;;;;5074353;28;20164;-71
2022/02/22 12:26:20;;;;;;;20.98;4.68;;;6.70;99.90;;;;;;5074334;28;20237;-71
2022/02/22 12:28:51;;;;;;;15.55;4.50;;;6.70;99.90;;;;;;5074264;28;20517;-71
2022/02/22 12:31:36;;;;;;;14.38;3.83;;;6.70;99.90;;;;;;5074243;28;20173;-70
2022/02/22 12:34:08;;;;;;;16.13;3.70;;;6.70;99.90;;;;;;5074093;28;20176;-71
2022/02/22 12:36:36;;;;;;;14.73;4.25;;;6.70;99.90;;;;;;5074091;28;20172;-70
2022/02/22 12:39:08;;;;;;;20.17;4.78;;;6.70;99.90;;;;;;5074047;28;20203;-71
2022/02/22 14:38:52;;;;;;;23.73;5.18;;;6.40;99.90;;;;;;5086296;28;20596;-71
2022/02/22 14:41:18;;;;;;;13.73;5.75;;;6.50;99.90;;;;;;5070579;28;20649;-71
2022/02/22 14:43:44;;;;;;;10.32;6.22;;;6.60;99.90;;;;;;5070638;28;20164;-71
2022/02/22 14:46:09;;;;;;;15.77;7.22;;;6.60;99.90;;;;;;5070592;28;20214;-72
